z

Olsztyn

Wyniki

Bieg 6

12.03.2016 Dystans: 5 km Rodzaj: Bieg główny
Pobierz wyniki:
Miejsce Nr Nazwisko Imię Miasto Klub Rocznik Kategoria Czas netto Czas brutto
1 11 JACKIEWICZ MONIKA Szczecin CITY TRAIL TEAM 1992 K20 00:18:21 00:18:21
2 493 GAWROŃSKA BEATA Olsztyn AKM OLIMP OLSZTYN/SKLEPBIEGOWY.COM 1973 K40 00:21:24 00:21:26
3 98 ZIELIŃSKA MAGDALENA olsztyn TEAM KOPEĆ 1982 K30 00:21:54 00:21:54
4 727 KUNDYS KAROLINA Warszawa PARKRUN URSYNÓW 1983 K30 00:22:05 00:22:08
5 113 LIPNICKA KATARZYNA Ostróda PSZCZÓŁKOWSKI TEAM 1982 K30 00:22:14 00:22:15
6 474 ROSIŃSKA KAROLINA Olsztyn 1992 K20 00:22:31 00:22:40
7 579 POPŁAWSKA SELENA Olsztyn TEAM KOPEĆ 1982 K30 00:22:35 00:22:43
8 119 WASIAK MIŁOSŁAWA Działdowo PSZCZÓŁKOWSKI TEAM 1991 K20 00:22:37 00:22:39
9 78 GAWRYŚ KATARZYNA Olsztyn BIEGACZKI.PL 1981 K30 00:23:03 00:23:10
10 721 JUREWICZ ARKADIUSZ OSTRÓDA KAJKOLANDIA 1978 K30 00:23:14 00:23:21
11 44 BURANDT MAGDALENA Olszty 12TRI.PL DRUŻYNA WILKA 1980 K30 00:23:15 00:23:26
12 377 BRONAKOWSKA DOROTA Olsztyn 1982 K30 00:23:17 00:23:24
13 231 DĄBKOWSKA-WILCZEK MARTA Olsztyn 12TRI.PL DRUŻYNA WILKA 1983 K30 00:23:31 00:23:46
14 59 SZYMAŃSKA EDYTA Olsztyn 12TRI.PL DRUŻYNA WILKA 1987 K20 00:23:36 00:23:44
15 88 KĘDZIA MILENA Olsztyn 1997 K16 00:23:37 00:23:42
16 345 DUNAJSKA KAROLINA olsztyn 12TRI.PL DRUŻYNA WILKA 1989 K20 00:23:57 00:23:58
17 464 BOGUSZ JUSTYNA Mrągwo 12TRI.PL DRUŻYNA WILKA 1994 K20 00:24:19 00:24:28
18 445 MILCZAREK DANUTA OLSZTYN KOCHAM SWOJEGO MĘŻA 1973 K40 00:24:19 00:24:28
19 735 PIECZKOWSKA AGNIESZKA Dywity PSZCZÓŁKOWSKI TEAM 1978 K30 00:24:20 00:24:23
20 448 BOLDA PATRYCJA Olsztyn FIZJOTERAPIA MATEUSZ DERLECKI 1993 K20 00:24:30 00:24:43
21 350 GAJEWSKA MARCELINA Olsztyn GAJÓWKA 1999 K16 00:24:44 00:24:48
22 629 SENDERSKA-PŁONOWSKA MAGDALENA Wrocław 1992 K20 00:25:07 00:25:21
23 56 KULESZA MAŁGORZATA Olsztyn 4FUNEVENTS.PL 1965 K50 00:25:10 00:25:12
24 660 KAMROWSKA MARTA Olsztyn 1986 K20 00:25:24 00:25:34
25 131 ODOLIŃSKA AGNIESZKA Ostróda BRZOZOWSKI TEAM 1972 K40 00:25:37 00:25:51
26 626 ŁODZIANA DOROTA OLSZTYN PSZCZÓŁKOWSKI TEAM 1981 K30 00:25:38 00:25:51
27 276 ANTCZAK EDYTA Ostróda OSTRÓDZKA GRUPA BIEGOWA 1981 K30 00:25:46 00:26:00
28 616 WORONIEC ALICJA Lidzbark Warmiński TEAM KOPEĆ 1981 K30 00:25:48 00:25:58
29 322 ANDRUSZKIEWICZ ANNA Olsztyn BBLOLSZTYN 1957 K50 00:25:51 00:26:05
30 431 BARNECKA PAULINA Olsztyn 1992 K20 00:25:54 00:26:06
31 696 PĘCAK MAGDALENA OLSZTYN 1983 K30 00:25:59 00:26:13
32 675 TRUŚ MARTA Poznań KOBIETY BIEGAJĄ 1987 K20 00:26:13 00:26:31
33 571 JANKOWSKA PAULINA Olsztyn TEAM BEZ NAZWY/KW OLSZTYN 1985 K30 00:26:17 00:26:32
34 693 KOZŁOWSKA MAGDALENA OLSZTYN 1982 K30 00:26:18 00:26:28
35 262 KIEZIK ANNA Olsztyn 1982 K30 00:26:21 00:26:42
36 680 KUMOROWSKA KATARZYNA TRĘKUSEK 1981 K30 00:26:25 00:26:41
37 106 ŻUCHNIEWICZ WIKTORIA Olsztyn LEŚNI BIEGACZE 1998 K16 00:26:33 00:26:49
38 179 SŁOWIKOWSKA MAGDALENA Olsztyn SĄD OKRĘGOWY W OLSZTYNIE 1975 K40 00:26:39 00:26:46
39 32 POLAK MICHALINA Opole 1995 K20 00:26:42 00:27:00
40 36 ŻBIK ADA Olsztyn 1994 K20 00:26:44 00:27:01
41 73 KUNDA EDYTA Gietrzwałd TEAM BEZ NAZWY/KW OLSZTYN 1980 K30 00:26:47 00:27:02
42 225 MOROZ KATARZYNA Olsztyn 1978 K30 00:26:53 00:27:07
43 508 SZYNDRALEWICZ GABRIELA OLSZTYN GRUPA DBK OLSZTYN 1969 K40 00:27:16 00:27:44
44 149 WÓJCIK MONIKA Olsztyn TEAM KOPEĆ 1981 K30 00:27:16 00:27:27
45 541 FOKS MAŁGORZATA Jonkowo 1987 K20 00:27:21 00:27:47
46 558 KUREK MARIOLA Jonkowo PORBADY 1978 K30 00:27:39 00:28:07
47 330 ZIELIŃSKA KASIA Olsztyn 1988 K20 00:27:46 00:28:08
48 178 PAŃKOWSKA MARTYNA Olsztyn SĄD OKRĘGOWY W OLSZTYNIE 1987 K20 00:27:49 00:28:02
49 313 FOTSCHKI JOLANTA Olsztyn 1963 K50 00:27:50 00:28:11
50 575 KAROLEWSKA ANNA Olsztyn 1985 K30 00:27:51 00:28:06
51 237 GRABIEC JOANNA Miłomłyn BRZOZOWSKI TEAM 1996 K16 00:27:53 00:28:11
52 482 KUCZYŃSKA KINGA Mrągowo 1985 K30 00:27:54 00:28:05
53 128 POTOCKA MAŁGORZATA Olsztyn AKM OLIMP OLSZTYN/ SKLEPBIEGOWY.COM 1974 K40 00:27:55 00:28:12
54 380 JANAS KAROLINA Bełchatów 1987 K20 00:27:57 00:28:15
55 333 TURALSKA MAŁGORZATA Olsztyn NUTRIPOL 1965 K50 00:28:01 00:28:12
56 303 PAZIK PATRYCJA Bartoszyce 1991 K20 00:28:09 00:28:28
57 223 JAKUBOWSKA KLAUDIA Olsztyn 1997 K16 00:28:11 00:28:30
58 516 HINZMANN ANNA Stawiguda 1992 K20 00:28:15 00:28:37
59 265 GĄSIOREK JOANNA Jonkowo 1989 K20 00:28:26 00:28:40
60 127 KRAUSHAR MONIKA Giedajty DOMON 1974 K40 00:28:32 00:28:46
61 292 NADZIAK WIOLETTA Morąg INKSPOT 1974 K40 00:28:33 00:28:52
62 699 KUJDA DOROTA OSIELSKO OSIELSKO 1980 K30 00:28:39 00:28:55
63 594 DEMBIŃSKA ANNA Marki 1991 K20 00:28:41 00:28:55
64 512 OSTROMECKA ANNA Olsztyn 1987 K20 00:28:50 00:29:02
65 436 KOMOROWSKA EWA Olsztyn RC KOMOROWSCY 1974 K40 00:28:59 00:29:16
66 10 NIEWDZIĘCZNA BARBARA Olsztyn PSZCZÓŁKOWSKI TEAM 1976 K30 00:29:12 00:29:34
67 302 GAJEWSKA BARBARA Olsztyn GAJÓWKA 1964 K50 00:29:20 00:29:37
68 527 MAŃKOWSKA-SALIK IZABELA Olsztyn 1978 K30 00:29:22 00:29:40
69 518 GRZEGORZEWSKA KATARZYNA Gietrzwałd SSPS AZS OLSZTYN 1986 K20 00:29:24 00:29:46
70 466 STRĄCZEK DOMINIKA Olsztyn 1986 K20 00:29:28 00:29:54
71 624 FOTSCHKI JOANNA Olsztyn 1988 K20 00:29:35 00:29:57
72 248 KRAWIEC AGNIESZKA Olsztyn SĄD OKRĘGOWY W OLSZTYNIE 1977 K30 00:29:37 00:29:59
73 511 DZIDO EDYTA Nidzica NIDZICA BIEGA 1971 K40 00:29:37 00:29:52
74 716 KRZYŻAN KATARZYNA Olsztyn 1991 K20 00:29:53 00:30:17
75 68 DADASIEWICZ MARZENA Olsztyn 1979 K30 00:29:59 00:30:12
76 410 BARTNIKOWSKA OLGA Olsztyn KINETIC TEAM 1977 K30 00:30:30 00:30:49
77 41 PIĘDZIA IZABELA Olsztyn LEŚNI BIEGACZE 1974 K40 00:30:44 00:31:00
78 348 STANKIEWICZ SYLWIA Olsztyn 1980 K30 00:30:50 00:31:04
79 467 PETRYKOWSKA MAGDA Miłomłyn BRZOZOWSKI TEAM 1993 K20 00:30:57 00:31:14
80 714 ZIELIŃSKA ANNA Olsztyn MTZ RENAULT ALCAR TEAM KOPEĆ 1979 K30 00:31:16 00:31:37
81 115 PANKOWSKA JUSTYNA Olsztyn 1973 K40 00:31:39 00:31:57
82 393 SZEKLICKA MARZENA Olsztyn FITNESS CLUB SYLWETKA 1981 K30 00:31:48 00:32:09
83 427 PODRAŻKA KAMILA Olsztyn 1986 K20 00:32:00 00:32:21
84 726 ŚLADOWSKA LUIZA OLSZTYN BOHO-ZONE 1981 K30 00:32:02 00:32:24
85 30 RATUSZYŃSKA KASIA Olsztyn 1975 K40 00:32:11 00:32:32
86 689 CHROSTEK MILENA Niechodzin 1993 K20 00:32:12 00:32:17
87 321 KALINOWSKA MARTA Olsztyn 1982 K30 00:32:16 00:32:38
88 166 BIERNIAK IZABELA Olsztyn SĄD OKRĘGOWY W OLSZTYNIE 1981 K30 00:32:31 00:32:55
89 725 ŚLADOWSKA ALEKSANDRA OLSZTYN BOHO-ZONE 1977 K30 00:32:31 00:32:54
90 21 DROZDOWSKA EMILIA Olsztyn DROZDY BIEGAJĄ :) 1976 K30 00:33:14 00:33:37
91 525 PAWŁOWSKA MALWINA Ożarów Mazowiecki 1982 K30 00:33:41 00:34:04
92 724 KOSZCZUK MAŁGORZATA OLSZTYN BOHO-ZONE 1973 K40 00:33:47 00:34:09
93 51 DIDJURGEIT AGNIESZKA Biskupiec BISKUPIEC BIEGA 1974 K40 00:34:12 00:34:35
94 269 KAMIANKA MAŁGORZATA Olsztyn PSZCZÓŁKOWSKI TEAM 1973 K40 00:34:28 00:34:49
95 198 AMBROŻKO WANDA Olsztyn 1948 K60 00:35:27 00:35:50
96 57 DRABIŃSKA NATALIA Olsztyn 1990 K20 00:35:27 00:35:52
97 644 DĄBROWSKA MONIKA Kwidzyn BIEG NA SZEŚĆ ŁAP 1980 K30 00:36:37 00:37:07
98 137 BRZÓSKA MAŁGORZATA Jonkowo LEŚNI BIEGACZE 1971 K40 00:36:48 00:37:17
99 185 BLOCK BEATA Jonkowo SĄD OKRĘGOWY W OLSZTYNIE 1975 K40 00:37:11 00:37:36
100 704 WASILEWSKA MARTYNA Susz 1992 K20 00:37:21 00:37:47
101 58 KOWALSKA BIBI Prabuty 1992 K20 00:37:21 00:37:47
102 134 MAŃKOWSKA ANNA Olsztyn 12TRI.PL DRUŻYNA WILKA 1984 K30 00:40:53 00:41:18
103 250 CZYŻEWSKA MARIOLA olsztyn 12TRI.PL DRUŻYNA WILKA 1986 K20 00:40:54 00:41:19

Sponsor tytularny

Partnerzy generalni